createdAt,value
2023-02-01T00:03:24.889Z,2.78
2023-02-01T00:08:28.469Z,1.73
2023-02-01T00:13:33.946Z,3.22
2023-02-01T00:18:37.523Z,2.70
2023-02-01T00:23:41.208Z,2.38
2023-02-01T00:28:45.280Z,2.22
2023-02-01T00:33:49.530Z,1.65
2023-02-01T00:38:52.799Z,1.70
2023-02-01T00:43:56.063Z,1.33
2023-02-01T00:54:02.762Z,1.45
2023-02-01T00:59:06.290Z,2.88
2023-02-01T01:04:09.724Z,1.30
2023-02-01T01:09:13.178Z,1.40
2023-02-01T01:14:16.501Z,1.30
2023-02-01T01:19:19.741Z,1.90
2023-02-01T01:24:22.884Z,1.20
2023-02-01T01:29:26.075Z,1.60
2023-02-01T01:39:32.159Z,1.70
2023-02-01T01:45:06.098Z,1.35
2023-02-01T01:50:17.470Z,2.17
2023-02-01T01:55:23.665Z,2.50
2023-02-01T02:00:27.694Z,1.70
2023-02-01T02:05:33.309Z,1.70
2023-02-01T02:15:49.944Z,1.73
2023-02-01T02:20:53.097Z,1.83
2023-02-01T02:26:24.243Z,2.22
2023-02-01T02:31:55.613Z,2.37
2023-02-01T02:37:31.947Z,2.67
2023-02-01T02:43:01.057Z,2.63
2023-02-01T02:48:30.121Z,1.60
2023-02-01T02:54:05.551Z,2.17
2023-02-01T02:59:11.238Z,1.95
2023-02-01T03:04:16.183Z,1.42
2023-02-01T03:09:37.846Z,1.50
2023-02-01T03:14:44.884Z,2.33
2023-02-01T03:19:52.301Z,1.85
2023-02-01T03:25:00.735Z,2.00
2023-02-01T03:30:16.789Z,1.40
2023-02-01T03:35:28.887Z,2.05
2023-02-01T03:40:36.587Z,1.75
2023-02-01T03:45:44.933Z,2.20
2023-02-01T03:50:55.626Z,2.58
2023-02-01T03:55:59.852Z,1.20
2023-02-01T04:01:03.284Z,1.42
2023-02-01T04:06:10.567Z,1.63
2023-02-01T04:16:17.780Z,1.40
2023-02-01T04:21:20.941Z,1.15
2023-02-01T04:26:24.553Z,1.10
2023-02-01T04:31:27.842Z,1.20
2023-02-01T04:36:31.111Z,1.33
2023-02-01T04:46:37.351Z,1.50
2023-02-01T04:56:44.198Z,2.00
2023-02-01T05:01:49.061Z,2.40
2023-02-01T05:06:52.619Z,3.05
2023-02-01T05:11:55.771Z,2.72
2023-02-01T05:22:02.009Z,2.55
2023-02-01T05:27:05.418Z,2.92
2023-02-01T05:37:26.302Z,1.58
2023-02-01T05:47:33.154Z,1.75
2023-02-01T05:52:36.384Z,1.52
2023-02-01T05:57:39.511Z,1.70
2023-02-01T06:02:42.761Z,1.77
2023-02-01T06:07:46.160Z,1.75
2023-02-01T06:12:49.605Z,1.65
2023-02-01T06:17:52.930Z,1.90
2023-02-01T06:22:57.610Z,1.80
2023-02-01T06:28:02.484Z,2.13
2023-02-01T06:33:05.847Z,2.67
2023-02-01T06:43:12.493Z,1.90
2023-02-01T06:48:16.159Z,2.20
2023-02-01T06:53:19.358Z,2.05
2023-02-01T07:03:25.906Z,1.95
2023-02-01T07:08:30.348Z,1.98
2023-02-01T07:13:33.845Z,2.50
2023-02-01T07:18:37.103Z,2.55
2023-02-01T07:23:40.465Z,2.65
2023-02-01T07:33:46.880Z,2.72
2023-02-01T07:38:50.206Z,2.05
2023-02-01T07:48:56.962Z,2.50
2023-02-01T07:54:00.061Z,2.38
2023-02-01T07:59:04.165Z,2.47
2023-02-01T08:04:07.300Z,3.58
2023-02-01T08:09:12.196Z,2.47
2023-02-01T08:14:15.367Z,2.35
2023-02-01T08:24:23.095Z,2.40
2023-02-01T08:29:27.573Z,4.40
2023-02-01T08:39:33.700Z,8.52
2023-02-01T08:44:37.084Z,12.55
2023-02-01T08:49:40.995Z,11.35
2023-02-01T08:54:44.601Z,9.57
2023-02-01T09:04:50.581Z,11.73
2023-02-01T09:09:53.787Z,3.83
2023-02-01T09:20:00.463Z,2.13
2023-02-01T09:25:03.979Z,2.35
2023-02-01T09:30:08.961Z,1.95
2023-02-01T09:35:12.147Z,1.83
2023-02-01T09:40:18.088Z,1.73
2023-02-01T09:45:51.158Z,1.67
2023-02-01T09:50:59.812Z,0.75
2023-02-01T09:56:11.933Z,1.25
2023-02-01T10:01:27.165Z,1.40
2023-02-01T10:06:58.845Z,2.20
2023-02-01T10:12:32.269Z,2.97
2023-02-01T10:18:06.352Z,4.10
2023-02-01T10:23:32.933Z,3.08
2023-02-01T10:28:37.505Z,2.97
2023-02-01T10:33:45.727Z,3.33
2023-02-01T10:38:49.458Z,4.05
2023-02-01T10:43:58.429Z,3.80
2023-02-01T10:49:04.890Z,2.67
2023-02-01T10:54:34.836Z,2.63
2023-02-01T10:59:38.145Z,3.30
2023-02-01T11:04:41.367Z,3.00
2023-02-01T11:09:51.600Z,2.38
2023-02-01T11:15:23.792Z,2.90
2023-02-01T11:20:32.988Z,3.40
2023-02-01T11:25:37.708Z,3.20
2023-02-01T11:30:45.186Z,1.42
2023-02-01T11:35:49.514Z,1.25
2023-02-01T11:40:52.694Z,1.85
2023-02-01T11:51:33.915Z,2.47
2023-02-01T11:57:01.832Z,1.13
2023-02-01T12:02:38.065Z,3.40
2023-02-01T12:07:47.335Z,2.35
2023-02-01T12:12:56.175Z,2.88
2023-02-01T12:18:44.306Z,2.40
2023-02-01T12:24:08.156Z,2.00
2023-02-01T12:29:39.026Z,1.77
2023-02-01T12:34:51.043Z,1.55
2023-02-01T12:40:18.666Z,1.75
2023-02-01T12:45:58.096Z,2.50
2023-02-01T12:51:14.145Z,2.63
2023-02-01T12:56:28.190Z,1.60
2023-02-01T13:01:56.512Z,2.10
2023-02-01T13:07:25.808Z,2.67
2023-02-01T13:12:46.171Z,1.65
2023-02-01T13:17:52.659Z,1.23
2023-02-01T13:23:04.545Z,2.88
2023-02-01T13:28:16.226Z,2.40
2023-02-01T13:33:53.560Z,2.00
2023-02-01T13:39:20.589Z,2.95
2023-02-01T13:44:49.944Z,2.63
2023-02-01T13:49:56.334Z,1.92
2023-02-01T13:55:21.431Z,1.95
2023-02-01T14:00:30.632Z,2.25
2023-02-01T14:05:33.791Z,1.73
2023-02-01T14:10:46.392Z,2.22
2023-02-01T14:16:04.941Z,3.10
2023-02-01T14:21:29.358Z,1.70
2023-02-01T14:26:35.734Z,3.65
2023-02-01T14:32:01.202Z,3.50
2023-02-01T14:37:09.951Z,3.17
2023-02-01T14:42:22.697Z,4.25
2023-02-01T14:57:41.976Z,3.40
2023-02-01T15:02:48.834Z,3.05
2023-02-01T15:07:52.948Z,3.60
2023-02-01T15:12:56.126Z,3.90
2023-02-01T15:18:00.611Z,3.22
2023-02-01T15:23:06.444Z,3.90
2023-02-01T15:28:17.488Z,3.05
2023-02-01T15:33:21.547Z,3.92
2023-02-01T15:38:24.812Z,3.45
2023-02-01T15:48:39.149Z,2.75
2023-02-01T15:53:59.683Z,4.43
2023-02-01T15:59:08.135Z,3.47
2023-02-01T16:04:17.551Z,3.47
2023-02-01T16:09:24.073Z,3.05
2023-02-01T16:14:28.156Z,3.75
2023-02-01T16:19:31.318Z,4.30
2023-02-01T16:24:34.344Z,3.40
2023-02-01T16:29:37.431Z,3.55
2023-02-01T16:34:40.625Z,3.78
2023-02-01T16:39:43.671Z,2.72
2023-02-01T16:44:46.816Z,3.63
2023-02-01T16:49:50.113Z,2.55
2023-02-01T16:54:56.215Z,2.60
2023-02-01T17:00:22.241Z,3.42
2023-02-01T17:05:36.028Z,2.60
2023-02-01T17:10:39.310Z,2.67
2023-02-01T17:16:05.279Z,2.90
2023-02-01T17:21:10.730Z,2.35
2023-02-01T17:26:14.108Z,1.83
2023-02-01T17:31:18.602Z,2.80
2023-02-01T17:36:22.055Z,3.35
2023-02-01T17:46:33.359Z,2.65
2023-02-01T17:51:37.023Z,2.72
2023-02-01T17:56:43.342Z,3.03
2023-02-01T18:01:50.813Z,1.80
2023-02-01T18:11:56.804Z,1.80
2023-02-01T18:16:59.974Z,1.30
2023-02-01T18:22:03.161Z,2.60
2023-02-01T18:32:10.926Z,2.45
2023-02-01T18:37:16.903Z,3.08
2023-02-01T18:42:25.066Z,2.40
2023-02-01T18:52:31.129Z,2.92
2023-02-01T18:57:34.291Z,1.52
2023-02-01T19:02:38.034Z,1.75
2023-02-01T19:07:42.871Z,1.98
2023-02-01T19:12:46.448Z,2.17
2023-02-01T19:17:52.526Z,2.63
2023-02-01T19:22:55.679Z,1.88
2023-02-01T19:27:59.155Z,2.45
2023-02-01T19:33:03.175Z,2.83
2023-02-01T19:38:06.602Z,2.80
2023-02-01T19:48:12.960Z,2.08
2023-02-01T19:53:16.377Z,2.88
2023-02-01T19:58:19.544Z,1.98
2023-02-01T20:03:23.521Z,3.70
2023-02-01T20:08:27.746Z,2.72
2023-02-01T20:13:30.843Z,2.80
2023-02-01T20:18:34.000Z,2.30
2023-02-01T20:23:37.169Z,3.17
2023-02-01T20:28:41.619Z,2.67
2023-02-01T20:33:44.751Z,2.83
2023-02-01T20:38:47.994Z,3.30
2023-02-01T20:43:51.184Z,3.33
2023-02-01T20:48:55.458Z,2.20
2023-02-01T20:53:58.521Z,2.63
2023-02-01T20:59:01.684Z,2.92
2023-02-01T21:04:04.817Z,2.97
2023-02-01T21:14:11.862Z,2.55
2023-02-01T21:19:15.225Z,2.55
2023-02-01T21:24:18.304Z,4.18
2023-02-01T21:29:22.538Z,1.88
2023-02-01T21:34:27.125Z,4.07
2023-02-01T21:39:30.283Z,3.20
2023-02-01T21:44:33.370Z,2.92
2023-02-01T21:49:37.749Z,3.30
2023-02-01T21:54:43.292Z,2.20
2023-02-01T21:59:46.377Z,2.67
2023-02-01T22:04:49.410Z,2.45
2023-02-01T22:09:52.538Z,3.03
2023-02-01T22:14:55.838Z,2.80
2023-02-01T22:25:01.716Z,1.75
2023-02-01T22:30:06.234Z,3.90
2023-02-01T22:35:09.866Z,2.88
2023-02-01T22:40:14.997Z,2.08
2023-02-01T22:45:18.101Z,2.33
2023-02-01T22:50:21.392Z,2.10
2023-02-01T22:55:24.852Z,2.28
2023-02-01T23:00:28.877Z,2.83
2023-02-01T23:05:31.982Z,2.40
2023-02-01T23:10:35.422Z,3.17
2023-02-01T23:20:45.047Z,2.42
2023-02-01T23:25:51.923Z,2.10
2023-02-01T23:30:55.151Z,2.70
2023-02-01T23:41:07.853Z,3.47
2023-02-01T23:46:11.639Z,2.78
2023-02-01T23:51:15.681Z,2.15
2023-02-01T23:56:33.669Z,1.40
